Página principal
METAR-TAF:

METAR-TAF

Aeroportos :

Assunção, Paraguai

Aeroporto Internacional Silvio Pettirossi

latitude: 25-16S, longitude: 057-38W, altura: 101 m

Observação actual do tempo

O boletim foi feito há 21 minutos, às 17:00 UTC
Vento 6 kt de nor-nordeste, variando entre norte e este
Temperatura 28°C
Humidade 51%
Pressão 1017 hPa
Visibilidade 10 km ou mais
sem nuvens abaixo de 1500 metros e sem cumulonimbus

METAR: SGAS 281700Z 03006KT 360V090 CAVOK 28/17 Q1017

Hora: 13:21 (17:21 UTC)

Previsão

O boletim foi feito há 6 horas e 37 minutos, às 10:44 UTC
Previsão válida de 28 às 12 UTC a 29 às 12 UTC
Vento 7 kt de es-nordeste
Visibilidade 10 km ou mais
sem nuvens abaixo de 1500 metros e sem cumulonimbus
Tornando-se
de 28 às 16 UTC a 28 às 19 UTC
Vento 10 kt de nordeste
Visibilidade 10 km ou mais
Nuvens dispersasa uma altura de 3300 ft

TAF: SGAS 281044Z 2812/2912 06007KT CAVOK TX30/2819Z TN19/2910Z BECMG 2816/2819 05010KT 9999 SCT033

Observações e previsões do tempo de mais de 4000 aeroportos (mensagens METAR e TAF).

As estações disponíveis são os pontos amarelos e vermelhos sobre o mapa.

Mova o rato sobre o mapa para ver o nome da estação.

Depois clique no ponto para visualizar as observações e previsões meteorológicas.

Para alterar o mapa : clique nos botões verdes com uma cruz preta para aumentar o zoom; no botão verde com uma pitada de zoom; ou nas setas verdes para mapas adjacentes.


METAR-TAF: